• Join FlightAware (Why Join?)
  • Login
  • US Flag 
09:16AM EDT


 

Airport Tracker/Info


-or-


 

Live Flight TrackerFlight Track Log ✈ KEE209 ✈ 25-Jul-2013 ✈ CZEE / KES - CYWG

Flight Track Log - Related Links

Times and Time Zones

All times are in EDT time to prevent confusion due to time zone crossing. See the KEE209 flight status page for this flight to view local times or setup timezone preferences in your user account.

Time Position Orientation Groundspeed Altitude Reporting Facility
EDT Latitude Longitude Course Direction KTS MPH feet Rate Location/Type
10:17AM 49.9000 -97.4000 North 300 345 5,600  Level Winnipeg Center
10:19AM 49.9000 -97.2333 180° South  Level FlightAware Approximate
10:26AM 49.9100 -97.2344 180° South  Level Estimated
10:27AM 49.9100 -97.2344 180° South  Level Estimated
10:28AM 49.9100 -97.2344 180° South  Level Estimated
10:29AM 49.9100 -97.2344 180° South  Level Estimated
10:30AM 49.9100 -97.2344 180° South  Level Estimated
10:31AM 49.9100 -97.2344 180° South  Level Estimated
10:32AM 49.9100 -97.2344 180° South  Level Estimated
10:33AM 49.9100 -97.2344 180° South  Level Estimated
10:34AM 49.9100 -97.2344 180° South  Level Estimated
10:35AM 49.9100 -97.2344 180° South  Level Estimated
10:36AM 49.9100 -97.2344 180° South  Level Estimated
10:37AM 49.9100 -97.2344 180° South  Level Estimated
10:38AM 49.9100 -97.2344 180° South  Level Estimated
10:39AM 49.9100 -97.2344 180° South  Level Estimated
10:40AM 49.9100 -97.2344 180° South  Level Estimated
10:41AM 49.9100 -97.2344 180° South  Level Estimated
10:42AM 49.9100 -97.2344 180° South  Level Estimated
10:43AM 49.9100 -97.2344 180° South  Level Estimated
10:44AM 49.9100 -97.2344 180° South  Level Estimated
10:45AM 49.9100 -97.2344 180° South  Level Estimated
10:46AM 49.9100 -97.2344 180° South  Level Estimated
10:46AM 55.0167 -96.6333 180° South 220 253 23,900  Level Winnipeg Center
10:47AM 49.9100 -97.2344 180° South  Level Estimated
10:47AM 54.9500 -96.6500 188° South 240 276 23,800  Level Winnipeg Center
10:48AM 49.9100 -97.2344 180° South  Level Estimated
10:48AM 54.8833 -96.6500 180° South 250 288 23,900  Level Winnipeg Center
10:49AM 49.9100 -97.2344 180° South  Level Estimated
10:49AM 54.8167 -96.6667 188° South 250 288 23,900  Level Winnipeg Center
10:50AM 49.9100 -97.2344 180° South  Level Estimated
10:50AM 54.7333 -96.6667 180° South 250 288 23,900  Level Winnipeg Center
10:51AM 49.9100 -97.2344 180° South  Level Estimated
10:51AM 54.6667 -96.6667 180° South 250 288 23,900  Level Winnipeg Center
10:52AM 49.9100 -97.2344 180° South  Level Estimated
10:52AM 54.6000 -96.6667 180° South 250 288 23,900  Level Winnipeg Center
10:53AM 54.5333 -96.7000 196° South 260 299 23,900  Level Winnipeg Center
10:54AM 54.4500 -96.7000 180° South 260 299 23,900  Level Winnipeg Center
10:55AM 54.3833 -96.7333 196° South 260 299 23,900  Level Winnipeg Center
10:57AM 54.3050 -96.7419 184° South  Level FlightAware Approximate
10:57AM 54.2333 -96.7333 184° South 260 299 23,900  Level Winnipeg Center
10:58AM 54.1667 -96.7333 180° South 260 299 23,900  Level Winnipeg Center
10:59AM 54.1000 -96.7667 196° South 260 299 24,000  Climbing Winnipeg Center
11:00AM 54.0333 -96.7667 180° South 260 299 23,900 -60 Descending Winnipeg Center
11:01AM 53.9500 -96.7667 180° South 260 299 23,900  Level Winnipeg Center
11:02AM 53.8833 -96.8000 196° South 260 299 24,000  Climbing Winnipeg Center
11:03AM 53.8167 -96.8000 180° South 260 299 23,900  Descending Winnipeg Center
11:04AM 53.7333 -96.8000 180° South 260 299 24,000  Climbing Winnipeg Center
11:05AM 53.6667 -96.8000 180° South 260 299 23,900 -60 Descending Winnipeg Center
11:06AM 53.6000 -96.8000 180° South 260 299 23,900  Level Winnipeg Center
11:07AM 53.5333 -96.8167 188° South 250 288 23,900  Level Winnipeg Center
11:08AM 53.4500 -96.8167 180° South 250 288 23,900  Level Winnipeg Center
11:09AM 53.3833 -96.8500 197° South 250 288 23,900  Level Winnipeg Center
11:10AM 53.3167 -96.8500 180° South 250 288 23,900  Level Winnipeg Center
11:11AM 53.2500 -96.8500 180° South 250 288 23,900  Level Winnipeg Center
11:12AM 53.1833 -96.8833 197° South 250 288 23,900  Level Winnipeg Center
11:14AM 53.1060 -96.8895 183° South  Level FlightAware Approximate
11:15AM 53.0000 -96.8833 183° South 240 276 23,900  Level Winnipeg Center
11:16AM 52.9167 -96.9167 194° South 250 288 23,900  Level Winnipeg Center
11:17AM 52.8500 -96.9167 180° South 260 299 24,000  Climbing Winnipeg Center
11:18AM 52.7833 -96.9333 189° South 250 288 24,000  Level Winnipeg Center
11:19AM 52.7167 -96.9333 180° South 260 299 24,000 -60 Level Winnipeg Center
11:20AM 52.6333 -96.9333 180° South 260 299 23,900  Descending Winnipeg Center
11:21AM 52.5667 -96.9333 180° South 260 299 24,000  Climbing Winnipeg Center
11:22AM 52.5000 -96.9667 197° South 250 288 24,000 -60 Level Winnipeg Center
11:23AM 52.4333 -96.9667 180° South 260 299 23,900  Descending Winnipeg Center
11:24AM 52.3500 -96.9667 180° South 250 288 24,000  Climbing Winnipeg Center
11:25AM 52.2833 -96.9667 180° South 250 288 23,900 -60 Descending Winnipeg Center
11:26AM 52.1833 -97.0000 192° South 250 288 23,900  Level Winnipeg Center
11:27AM 52.1167 -97.0000 180° South 250 288 23,900  Level Winnipeg Center
11:28AM 52.0500 -97.0000 180° South 250 288 23,900  Level Winnipeg Center
11:29AM 51.9833 -97.0000 180° South 250 288 23,900  Level Winnipeg Center
11:30AM 51.9167 -97.0000 180° South 250 288 23,900  Level Winnipeg Center
11:31AM 51.8500 -97.0000 180° South 250 288 23,900  Level Winnipeg Center
11:32AM 51.7833 -97.0167 189° South 250 288 23,900  Level Winnipeg Center
11:33AM 51.7167 -97.0167 180° South 240 276 23,900  Level Winnipeg Center
11:34AM 51.6500 -97.0167 180° South 250 288 24,000  Climbing Winnipeg Center
11:35AM 51.5667 -97.0167 180° South 250 288 23,900 -60 Descending Winnipeg Center
11:36AM 51.5000 -97.0167 180° South 240 276 23,900  Level Winnipeg Center
11:37AM 51.4333 -97.0000 171° South 240 276 24,000  Climbing Winnipeg Center
11:38AM 51.3667 -97.0167 189° South 240 276 23,900 -60 Descending Winnipeg Center
11:39AM 51.3000 -97.0167 180° South 240 276 23,900 -60 Level Winnipeg Center
11:40AM 51.2333 -97.0500 197° South 250 288 23,800 -600 Descending Winnipeg Center
11:41AM 51.1667 -97.0500 180° South 260 299 22,800 -1,080 Descending Winnipeg Center
11:42AM 51.0833 -97.0167 166° South 280 322 21,700 -1,140 Descending Winnipeg Center
11:43AM 51.0167 -97.0167 180° South 280 322 20,600 -1,260 Descending Winnipeg Center
11:44AM 50.9333 -97.0500 194° South 270 311 19,200 -1,380 Descending Winnipeg Center
11:45AM 50.8667 -97.0500 180° South 270 311 17,900 -1,560 Descending Winnipeg Center
11:46AM 50.7833 -97.0500 180° South 270 311 16,100 -2,100 Descending Winnipeg Center
11:47AM 50.7000 -97.0667 187° South 280 322 13,800 -2,340 Descending Winnipeg Center
11:48AM 50.6333 -97.0667 180° South 280 322 11,500 -2,220 Descending Winnipeg Center
11:49AM 50.5500 -97.0667 180° South 270 311 9,400 -1,260 Descending Winnipeg Center
11:50AM 50.4833 -97.1000 198° South 250 288 9,000 -240 Descending Winnipeg Center
11:51AM 50.4167 -97.1167 189° South 220 253 9,000 -540 Level Winnipeg Center
11:52AM 50.3667 -97.1167 180° South 240 276 8,000 -960 Descending Winnipeg Center
11:53AM 50.3000 -97.1167 180° South 240 276 7,100 -540 Descending Winnipeg Center
11:54AM 50.2333 -97.1500 198° South 210 242 7,000 -480 Descending Winnipeg Center
11:55AM 50.1833 -97.1500 180° South 220 253 6,200 -1,320 Descending Winnipeg Center
11:56AM 50.1167 -97.1167 162° South 230 265 4,400 -1,500 Descending Winnipeg Center
11:57AM 50.0500 -97.1000 171° South 230 265 3,200 -720 Descending Winnipeg Center
11:58AM 50.0000 -97.0667 157° South 200 230 3,000 -120 Descending Winnipeg Center
11:59AM 49.9500 -97.0667 180° South 190 219 3,000 -60 Level Winnipeg Center
12:00PM 49.9000 -97.0500 168° South 190 219 2,900  Descending Winnipeg Center
12:01PM 49.8333 -97.0167 162° South 190 219 3,000  Climbing Winnipeg Center
12:02PM 49.8000 -97.0500 213° Southwest 190 219 3,000 -60 Level Winnipeg Center
12:03PM 49.8000 -97.1000 270° West 170 196 2,900 -480 Descending Winnipeg Center
12:04PM 49.8333 -97.1500 316° Northwest 150 173 2,100 -840 Descending Winnipeg Center
12:05PM 49.8667 -97.2000 316° Northwest 150 173 1,300 -660 Descending Winnipeg Center
12:06PM 49.8833 -97.2333 308° West 90 104 800 -540 Descending Winnipeg Center